WetterOnline ( https://www.wetteronline.de )

Wetter aktuell Barsbüttel

Aktuelles Wetter: Hamburg/Fuhlsbüttel (15m)

6-stündlich | Neueste Meldungen
Ortszeit Temperatur Wetter
Di, 12.11. 13:00 7.5° C bewölkt
Di, 12.11. 7:00 5.6° C bewölkt
Di, 12.11. 1:00 3.1° C bewölkt
Mo, 11.11. 19:00 3.4° C wolkig
Mo, 11.11. 13:00 4.4° C leicht bewölkt
Mo, 11.11. 7:00 0.4° C leicht bewölkt
Mo, 11.11. 1:00 4.5° C bewölkt
So, 10.11. 19:00 4.7° C leicht bewölkt
Ortszeit Temperatur Wetter
Di, 12.11. 15:20 8° C leicht bewölkt
Di, 12.11. 15:00 7.6° C bewölkt
Di, 12.11. 14:50 7.6° C -
Di, 12.11. 14:40 7.8° C -
Di, 12.11. 14:30 7.6° C -
Di, 12.11. 14:20 7.6° C -
Di, 12.11. 14:00 7.6° C bewölkt
Di, 12.11. 13:30 7.5° C -
Di, 12.11. 13:00 7.5° C bewölkt
Di, 12.11. 12:30 7.2° C -
Di, 12.11. 12:00 7.0° C bewölkt
Ortszeit Relative Feuchte Sichtweite
Di, 12.11. 13:00 68% 40 km
Di, 12.11. 7:00 78% 30 km
Di, 12.11. 1:00 85% 20 km
Mo, 11.11. 19:00 87% 15 km
Mo, 11.11. 13:00 84% 16 km
Mo, 11.11. 7:00 92% 9 km
Mo, 11.11. 1:00 81% 20 km
So, 10.11. 19:00 83% 25 km
Ortszeit Relative Feuchte Sichtweite
Di, 12.11. 15:20 66% >10 km
Di, 12.11. 15:00 66% 40 km
Di, 12.11. 14:50 66% -
Di, 12.11. 14:40 64% -
Di, 12.11. 14:30 66% 50 km
Di, 12.11. 14:20 66% -
Di, 12.11. 14:00 66% 40 km
Di, 12.11. 13:30 66% 55 km
Di, 12.11. 13:00 68% 40 km
Di, 12.11. 12:30 68% 60 km
Di, 12.11. 12:00 70% 35 km
Ortszeit Niederschlagsmenge Niederschlagsart
Di, 12.11. 13:00 0.0 l/m2 in 6 Std. -
Di, 12.11. 7:00 0.0 l/m2 in 12 Std. -
Di, 12.11. 1:00 0.0 l/m2 in 6 Std. -
Mo, 11.11. 19:00 0.0 l/m2 in 12 Std. -
Mo, 11.11. 13:00 0.0 l/m2 in 6 Std. -
Mo, 11.11. 7:00 0.0 l/m2 in 12 Std. -
Mo, 11.11. 1:00 0.0 l/m2 in 6 Std. -
So, 10.11. 19:00 0.0 l/m2 in 12 Std. -
Ortszeit Niederschlagsmenge Niederschlagsart
Di, 12.11. 15:20 keine Meldung -
Di, 12.11. 15:00 0.0 l/m2 in 1 Std. -
Di, 12.11. 14:50 keine Meldung -
Di, 12.11. 14:40 keine Meldung -
Di, 12.11. 14:30 0.0 l/m2 in 1 Std. -
Di, 12.11. 14:20 keine Meldung -
Di, 12.11. 14:00 0.1 l/m2 in 1 Std. Regenschauer
Di, 12.11. 13:30 0.1 l/m2 in 1 Std. -
Di, 12.11. 13:00 0.0 l/m2 in 1 Std. -
Di, 12.11. 12:30 0.0 l/m2 in 1 Std. -
Di, 12.11. 12:00 0.0 l/m2 in 1 Std. -
Ortszeit Stärke Spitze Richtung
km/h Bft. km/h Grad Sektor
Di, 12.11. 13:00 25 4 43 190° S
Di, 12.11. 7:00 17 3 30 170° S
Di, 12.11. 1:00 17 3 39 150° SO
Mo, 11.11. 19:00 22 4 37 150° SO
Mo, 11.11. 13:00 18 3 29 140° SO
Mo, 11.11. 7:00 11 2 22 160° S
Mo, 11.11. 1:00 14 3 25 190° S
So, 10.11. 19:00 11 2 22 190° S
Ortszeit Stärke Spitze Richtung
km/h Bft. km/h Grad Sektor
Di, 12.11. 15:20 20 4 - 170° S
Di, 12.11. 15:00 17 3 31 180° S
Di, 12.11. 14:50 17 3 - 180° S
Di, 12.11. 14:40 18 3 - 190° S
Di, 12.11. 14:30 18 3 29 180° S
Di, 12.11. 14:20 18 3 - 180° S
Di, 12.11. 14:00 20 4 39 180° S
Di, 12.11. 13:30 22 4 36 200° S
Di, 12.11. 13:00 25 4 40 190° S
Di, 12.11. 12:30 28 4 41 200° S
Di, 12.11. 12:00 22 4 40 190° S
Ortszeit Untergrenze Bedeckung Gattung
total tief tief mittel hoch
Di, 12.11. 13:00 780 m 7/8 7/8 Sc - -
Di, 12.11. 7:00 600 m 7/8 7/8 Sc - -
Di, 12.11. 1:00 660 m 7/8 7/8 Sc - -
Mo, 11.11. 19:00 240 m 7/8 4/8 St Ac -
Mo, 11.11. 13:00 270 m 4/8 1/8 St - Ci
Mo, 11.11. 7:00 3000 m 5/8 1/8 - Ac Ci
Mo, 11.11. 1:00 840 m 7/8 7/8 Sc - Cs
So, 10.11. 19:00 2400 m 2/8 2/8 - Ac -
Ortszeit Bedeckungsgrad in Achtel und Wolkenuntergrenze
Di, 12.11. 15:20 3-4(960m) 3-4(1410m)
Di, 12.11. 15:00 4(840m) 5(1350m)
Di, 12.11. 14:50 -
Di, 12.11. 14:40 -
Di, 12.11. 14:30 -
Di, 12.11. 14:20 -
Di, 12.11. 14:00 7(900m)
Di, 12.11. 13:30 -
Di, 12.11. 13:00 7(780m)
Di, 12.11. 12:30 -
Di, 12.11. 12:00 6(660m) 3(870m)
Ortszeit Luftdruck NN (hPa) Tendenz (hPa in 3 Std.)
Di, 12.11. 13:00 1002 - 0,2
Di, 12.11. 7:00 1001 0,0
Di, 12.11. 1:00 1002 - 0,9
Mo, 11.11. 19:00 1004 - 1,7
Mo, 11.11. 13:00 1008 - 2,2
Mo, 11.11. 7:00 1011 - 1,7
Mo, 11.11. 1:00 1013 - 1,0
So, 10.11. 19:00 1014 + 0,5
Ortszeit Luftdruck NN (hPa) Tendenz (hPa in 3 Std.)
Di, 12.11. 15:20 1001 keine Meldung
Di, 12.11. 15:00 1001 - 0,6
Di, 12.11. 14:50 1001 keine Meldung
Di, 12.11. 14:40 1001 keine Meldung
Di, 12.11. 14:30 1001 - 0,8
Di, 12.11. 14:20 1001 keine Meldung
Di, 12.11. 14:00 1001 - 0,7
Di, 12.11. 13:30 1001 - 0,5
Di, 12.11. 13:00 1002 - 0,2
Di, 12.11. 12:30 1001 - 0,2
Di, 12.11. 12:00 1002 + 0,1
Ortszeit Schneehöhe (cm)
Di, 12.11. 13:00 0
Di, 12.11. 7:00 0
Di, 12.11. 1:00 0
Mo, 11.11. 19:00 0
Mo, 11.11. 13:00 0
Mo, 11.11. 7:00 0
Mo, 11.11. 1:00 0
So, 10.11. 19:00 0
Ortszeit Schneehöhe (cm)
Di, 12.11. 15:20 -
Di, 12.11. 15:00 -
Di, 12.11. 14:50 -
Di, 12.11. 14:40 -
Di, 12.11. 14:30 -
Di, 12.11. 14:20 -
Di, 12.11. 14:00 -
Di, 12.11. 13:30 -
Di, 12.11. 13:00 0
Di, 12.11. 12:30 -
Di, 12.11. 12:00 -
Link zu dieser Seite / Seite empfehlen

Das Wetter in ...